Sichem Hawk — 9HSE9 — position and weather

sailwx.info

Track history (hours):
 
Tides and Currents Weather Stations Pressure Air Temp Water Temp Dewpoint Dewpoint Depression Visibility Wind Speed Wind Dir Waves Ship Positions

Sichem Hawk

Last reported at 2014-Nov-25 05:04 UTC. Time now 2014-Nov-26 16:19 UTC.
Position S 27°46' W 048°03'.

Length 170 m; draft 7.3 m.

Type: Ship. MMSI: 249445000.

Date/timePositionNaut miles runAvg speedWind from/ knotsBaromVisibWave heightAir tempDewpointWater temp
2014-Nov-25 05:04S 27°46' W 048°03'  
2014-Nov-22 07:33S 24°06' W 046°23'9 9.1
2014-Nov-22 06:33S 23°59' W 046°17'  
2014-Nov-19 02:32S 23°55' W 046°21'5 4.8
2014-Nov-19 01:33S 23°60' W 046°20'9 9.3
2014-Nov-19 00:32S 24°09' W 046°19'1 0.3
2014-Nov-18 22:11S 24°09' W 046°19'0 0.0
2014-Nov-18 21:11S 24°09' W 046°19'0 0.0
2014-Nov-18 20:23S 24°09' W 046°19'0 0.0
2014-Nov-18 19:17S 24°09' W 046°19'0 0.0
2014-Nov-18 17:20S 24°09' W 046°19'0 0.0
2014-Nov-18 16:29S 24°09' W 046°19'0 0.0
2014-Nov-18 15:32S 24°09' W 046°19'0 0.0
2014-Nov-18 14:26S 24°09' W 046°19'0 0.0
2014-Nov-18 12:14S 24°09' W 046°19'0 0.0
2014-Nov-18 11:23S 24°09' W 046°19'0 0.0
2014-Nov-18 08:32S 24°09' W 046°19'0 0.0
2014-Nov-18 03:23S 24°09' W 046°19'0 0.0
2014-Nov-17 21:18S 24°09' W 046°19'0 0.0
2014-Nov-17 20:07S 24°09' W 046°19'0 0.0
2014-Nov-17 19:33S 24°09' W 046°19'0 0.0
2014-Nov-17 16:32S 24°09' W 046°18'0 0.0
2014-Nov-17 15:29S 24°09' W 046°18'0 0.0
2014-Nov-17 14:24S 24°09' W 046°18'0 0.0
2014-Nov-17 13:33S 24°09' W 046°18'0 0.0
2014-Nov-17 12:33S 24°09' W 046°18'0 0.0
2014-Nov-17 11:29S 24°09' W 046°18'0 0.0
2014-Nov-17 08:28S 24°09' W 046°18'0 0.0
2014-Nov-17 07:31S 24°09' W 046°19'0 0.0
2014-Nov-17 06:30S 24°09' W 046°19'0 0.0
2014-Nov-17 05:33S 24°09' W 046°19'0 0.0
2014-Nov-17 03:18S 24°09' W 046°18'0 0.0
2014-Nov-17 02:28S 24°09' W 046°18'0 0.0
2014-Nov-17 01:27S 24°09' W 046°18'0 0.0
2014-Nov-17 00:21S 24°09' W 046°18'0 0.0
2014-Nov-16 23:19S 24°09' W 046°18'0 0.0
2014-Nov-16 22:32S 24°09' W 046°18'0 0.0
2014-Nov-16 19:25S 24°09' W 046°18'0 0.0
2014-Nov-16 18:08S 24°09' W 046°18'0 0.0
2014-Nov-16 17:32S 24°09' W 046°18'0 0.0
2014-Nov-16 16:25S 24°09' W 046°18'0 0.0
2014-Nov-16 14:31S 24°09' W 046°18'0 0.0
2014-Nov-16 12:16S 24°09' W 046°18'4 5.1
2014-Nov-16 11:26S 24°12' W 046°21'  
Track history (hours):
 
Tides and Currents Weather Stations Pressure Air Temp Water Temp Dewpoint Dewpoint Depression Visibility Wind Speed Wind Dir Waves Ship Positions

Sichem Hawk

Last reported at 2014-Nov-25 05:04 UTC. Time now 2014-Nov-26 16:19 UTC.
Position S 27°46' W 048°03'.

Length 170 m; draft 7.3 m.

Type: Ship. MMSI: 249445000.

Date/timePositionNaut miles runAvg speedWind from/ knotsBaromVisibWave heightAir tempDewpointWater temp
2014-Nov-25 05:04S 27°46' W 048°03'  
2014-Nov-22 07:33S 24°06' W 046°23'9 9.1
2014-Nov-22 06:33S 23°59' W 046°17'  
2014-Nov-19 02:32S 23°55' W 046°21'5 4.8
2014-Nov-19 01:33S 23°60' W 046°20'9 9.3
2014-Nov-19 00:32S 24°09' W 046°19'1 0.3
2014-Nov-18 22:11S 24°09' W 046°19'0 0.0
2014-Nov-18 21:11S 24°09' W 046°19'0 0.0
2014-Nov-18 20:23S 24°09' W 046°19'0 0.0
2014-Nov-18 19:17S 24°09' W 046°19'0 0.0
2014-Nov-18 17:20S 24°09' W 046°19'0 0.0
2014-Nov-18 16:29S 24°09' W 046°19'0 0.0
2014-Nov-18 15:32S 24°09' W 046°19'0 0.0
2014-Nov-18 14:26S 24°09' W 046°19'0 0.0
2014-Nov-18 12:14S 24°09' W 046°19'0 0.0
2014-Nov-18 11:23S 24°09' W 046°19'0 0.0
2014-Nov-18 08:32S 24°09' W 046°19'0 0.0
2014-Nov-18 03:23S 24°09' W 046°19'0 0.0
2014-Nov-17 21:18S 24°09' W 046°19'0 0.0
2014-Nov-17 20:07S 24°09' W 046°19'0 0.0
2014-Nov-17 19:33S 24°09' W 046°19'0 0.0
2014-Nov-17 16:32S 24°09' W 046°18'0 0.0
2014-Nov-17 15:29S 24°09' W 046°18'0 0.0
2014-Nov-17 14:24S 24°09' W 046°18'0 0.0
2014-Nov-17 13:33S 24°09' W 046°18'0 0.0
2014-Nov-17 12:33S 24°09' W 046°18'0 0.0
2014-Nov-17 11:29S 24°09' W 046°18'0 0.0
2014-Nov-17 08:28S 24°09' W 046°18'0 0.0
2014-Nov-17 07:31S 24°09' W 046°19'0 0.0
2014-Nov-17 06:30S 24°09' W 046°19'0 0.0
2014-Nov-17 05:33S 24°09' W 046°19'0 0.0
2014-Nov-17 03:18S 24°09' W 046°18'0 0.0
2014-Nov-17 02:28S 24°09' W 046°18'0 0.0
2014-Nov-17 01:27S 24°09' W 046°18'0 0.0
2014-Nov-17 00:21S 24°09' W 046°18'0 0.0
2014-Nov-16 23:19S 24°09' W 046°18'0 0.0
2014-Nov-16 22:32S 24°09' W 046°18'0 0.0
2014-Nov-16 19:25S 24°09' W 046°18'0 0.0
2014-Nov-16 18:08S 24°09' W 046°18'0 0.0
2014-Nov-16 17:32S 24°09' W 046°18'0 0.0
2014-Nov-16 16:25S 24°09' W 046°18'0 0.0
2014-Nov-16 14:31S 24°09' W 046°18'0 0.0
2014-Nov-16 12:16S 24°09' W 046°18'4 5.1
2014-Nov-16 11:26S 24°12' W 046°21'  

Dump ship's entire track history